createdAt,value
2022-11-23T00:00:15.794Z,1.65
2022-11-23T00:03:44.970Z,1.75
2022-11-23T00:06:23.768Z,1.23
2022-11-23T00:09:20.628Z,1.30
2022-11-23T00:11:49.009Z,1.30
2022-11-23T00:14:21.129Z,1.27
2022-11-23T00:16:49.268Z,1.30
2022-11-23T00:19:20.207Z,1.33
2022-11-23T00:21:49.663Z,1.00
2022-11-23T00:24:19.072Z,1.20
2022-11-23T00:26:47.532Z,1.30
2022-11-23T00:29:30.251Z,1.05
2022-11-23T00:32:05.441Z,1.40
2022-11-23T00:34:33.931Z,1.35
2022-11-23T00:37:03.428Z,1.10
2022-11-23T00:39:32.178Z,1.05
2022-11-23T00:42:00.912Z,1.10
2022-11-23T00:44:29.381Z,1.70
2022-11-23T00:46:58.313Z,1.20
2022-11-23T00:49:28.960Z,1.17
2022-11-23T00:51:57.698Z,1.10
2022-11-23T00:54:28.078Z,0.93
2022-11-23T00:56:56.867Z,1.13
2022-11-23T00:59:25.467Z,1.08
2022-11-23T01:01:58.393Z,1.00
2022-11-23T01:04:27.374Z,1.05
2022-11-23T01:06:59.439Z,1.10
2022-11-23T01:09:29.114Z,1.20
2022-11-23T01:11:57.791Z,1.20
2022-11-23T01:14:26.328Z,1.10
2022-11-23T01:16:57.378Z,1.08
2022-11-23T01:19:26.291Z,1.30
2022-11-23T01:22:03.504Z,0.95
2022-11-23T01:24:33.331Z,1.20
2022-11-23T01:27:01.939Z,0.90
2022-11-23T01:29:30.783Z,1.02
2022-11-23T01:32:02.748Z,1.17
2022-11-23T01:34:31.165Z,0.90
2022-11-23T01:37:00.789Z,0.93
2022-11-23T01:39:30.039Z,0.90
2022-11-23T01:41:59.733Z,1.10
2022-11-23T01:44:31.072Z,0.90
2022-11-23T01:47:00.899Z,1.08
2022-11-23T01:49:32.878Z,0.90
2022-11-23T01:52:07.607Z,0.98
2022-11-23T01:54:39.589Z,1.05
2022-11-23T01:57:15.052Z,0.93
2022-11-23T01:59:43.586Z,0.90
2022-11-23T02:02:12.009Z,1.15
2022-11-23T02:09:08.636Z,0.80
2022-11-23T02:11:42.388Z,0.88
2022-11-23T02:14:23.197Z,1.30
2022-11-23T02:17:03.060Z,0.93
2022-11-23T02:19:43.038Z,1.20
2022-11-23T02:25:49.407Z,1.05
2022-11-23T02:28:34.476Z,0.95
2022-11-23T02:31:05.237Z,1.10
2022-11-23T02:33:35.683Z,1.00
2022-11-23T02:36:41.275Z,1.00
2022-11-23T02:39:14.243Z,1.30
2022-11-23T02:41:45.353Z,1.10
2022-11-23T02:45:15.703Z,1.17
2022-11-23T02:48:04.643Z,1.08
2022-11-23T02:50:43.448Z,1.17
2022-11-23T02:53:12.212Z,1.00
2022-11-23T02:55:41.490Z,0.70
2022-11-23T02:58:16.077Z,1.20
2022-11-23T03:00:48.068Z,1.10
2022-11-23T03:03:21.518Z,1.35
2022-11-23T03:05:52.040Z,0.95
2022-11-23T03:08:20.774Z,1.10
2022-11-23T03:10:52.925Z,0.98
2022-11-23T03:13:25.274Z,0.95
2022-11-23T03:15:59.406Z,1.00
2022-11-23T03:18:37.864Z,1.23
2022-11-23T03:23:51.307Z,1.20
2022-11-23T03:26:23.956Z,0.88
2022-11-23T03:29:05.779Z,0.95
2022-11-23T03:31:39.139Z,1.13
2022-11-23T03:34:11.369Z,0.73
2022-11-23T03:36:40.896Z,1.00
2022-11-23T03:39:10.222Z,1.30
2022-11-23T03:42:00.284Z,1.10
2022-11-23T03:44:36.675Z,1.27
2022-11-23T03:47:13.646Z,1.20
2022-11-23T03:49:42.024Z,1.10
2022-11-23T03:52:11.546Z,1.05
2022-11-23T03:54:39.981Z,1.05
2022-11-23T03:57:22.312Z,1.10
2022-11-23T03:59:53.330Z,1.30
2022-11-23T04:02:25.207Z,1.38
2022-11-23T04:05:08.419Z,1.10
2022-11-23T04:07:57.910Z,0.90
2022-11-23T04:10:27.512Z,1.00
2022-11-23T04:13:37.014Z,1.10
2022-11-23T04:16:16.569Z,1.55
2022-11-23T04:19:23.997Z,1.48
2022-11-23T04:21:50.817Z,1.00
2022-11-23T04:24:20.638Z,1.05
2022-11-23T04:26:49.620Z,0.85
2022-11-23T04:29:25.471Z,1.00
2022-11-23T04:32:06.405Z,1.30
2022-11-23T04:34:41.693Z,1.10
2022-11-23T04:37:16.000Z,1.35
2022-11-23T04:39:51.818Z,1.35
2022-11-23T04:43:07.956Z,1.38
2022-11-23T04:45:39.975Z,1.23
2022-11-23T04:48:14.346Z,1.13
2022-11-23T04:50:50.888Z,1.70
2022-11-23T04:53:39.767Z,1.40
2022-11-23T04:56:08.768Z,1.80
2022-11-23T04:58:40.733Z,1.40
2022-11-23T05:01:09.093Z,1.40
2022-11-23T05:03:47.317Z,1.73
2022-11-23T05:06:19.326Z,1.55
2022-11-23T05:08:50.370Z,1.50
2022-11-23T05:11:30.174Z,1.80
2022-11-23T05:14:01.225Z,1.60
2022-11-23T05:16:31.441Z,1.73
2022-11-23T05:19:00.539Z,1.73
2022-11-23T05:21:30.351Z,1.33
2022-11-23T05:23:58.786Z,1.67
2022-11-23T05:26:31.236Z,1.52
2022-11-23T05:28:59.675Z,1.85
2022-11-23T05:31:28.893Z,1.70
2022-11-23T05:33:57.987Z,1.80
2022-11-23T05:36:42.053Z,1.92
2022-11-23T05:39:10.908Z,1.60
2022-11-23T05:41:40.125Z,1.70
2022-11-23T05:44:21.355Z,1.83
2022-11-23T05:46:49.808Z,1.20
2022-11-23T05:49:18.317Z,1.70
2022-11-23T05:51:47.874Z,1.55
2022-11-23T05:54:17.506Z,1.65
2022-11-23T05:56:58.546Z,1.48
2022-11-23T05:59:37.152Z,1.20
2022-11-23T06:02:08.519Z,1.67
2022-11-23T06:04:37.848Z,1.30
2022-11-23T06:07:53.188Z,1.42
2022-11-23T06:10:27.777Z,1.65
2022-11-23T06:14:00.339Z,1.38
2022-11-23T06:16:12.606Z,1.67
2022-11-23T06:18:52.467Z,1.50
2022-11-23T06:21:21.240Z,1.98
2022-11-23T06:23:49.928Z,1.95
2022-11-23T06:26:21.075Z,1.90
2022-11-23T06:28:50.284Z,2.05
2022-11-23T06:31:19.804Z,2.00
2022-11-23T06:33:48.332Z,2.25
2022-11-23T06:36:17.466Z,1.63
2022-11-23T06:38:50.083Z,1.85
2022-11-23T06:41:29.435Z,2.05
2022-11-23T06:44:01.574Z,2.13
2022-11-23T06:46:39.385Z,1.80
2022-11-23T06:49:09.092Z,2.45
2022-11-23T06:51:38.649Z,2.50
2022-11-23T06:54:06.818Z,2.13
2022-11-23T06:56:36.795Z,2.15
2022-11-23T06:59:05.268Z,2.70
2022-11-23T07:01:34.037Z,2.17
2022-11-23T07:04:07.745Z,2.33
2022-11-23T07:06:43.645Z,1.80
2022-11-23T07:09:21.989Z,2.13
2022-11-23T07:12:06.924Z,1.75
2022-11-23T07:14:36.915Z,2.30
2022-11-23T07:17:08.042Z,2.17
2022-11-23T07:19:41.611Z,1.92
2022-11-23T07:22:11.025Z,2.00
2022-11-23T07:24:46.364Z,2.13
2022-11-23T07:27:17.954Z,1.90
2022-11-23T07:29:46.858Z,2.00
2022-11-23T07:32:15.881Z,2.20
2022-11-23T07:34:48.086Z,1.92
2022-11-23T07:37:20.651Z,2.00
2022-11-23T07:39:57.265Z,2.20
2022-11-23T07:42:36.924Z,2.03
2022-11-23T07:45:15.803Z,1.90
2022-11-23T07:47:50.285Z,2.10
2022-11-23T07:50:18.788Z,2.10
2022-11-23T07:52:49.351Z,2.40
2022-11-23T07:55:17.800Z,1.98
2022-11-23T07:57:47.229Z,2.00
2022-11-23T08:00:16.376Z,1.90
2022-11-23T08:03:04.117Z,2.38
2022-11-23T08:05:34.778Z,3.13
2022-11-23T08:08:03.841Z,3.65
2022-11-23T08:10:32.971Z,3.97
2022-11-23T08:13:07.047Z,3.17
2022-11-23T08:15:35.727Z,3.50
2022-11-23T08:18:06.049Z,3.97
2022-11-23T08:20:34.518Z,2.78
2022-11-23T08:23:02.891Z,3.35
2022-11-23T08:25:31.589Z,3.10
2022-11-23T08:28:02.585Z,3.00
2022-11-23T08:30:32.661Z,2.50
2022-11-23T08:33:01.502Z,2.20
2022-11-23T08:35:30.207Z,1.85
2022-11-23T08:37:59.085Z,1.90
2022-11-23T08:40:27.509Z,2.70
2022-11-23T08:42:56.498Z,1.92
2022-11-23T08:45:26.510Z,2.40
2022-11-23T08:47:55.841Z,2.22
2022-11-23T08:50:24.295Z,2.35
2022-11-23T08:52:57.022Z,2.50
2022-11-23T08:55:25.802Z,2.92
2022-11-23T08:57:56.360Z,2.63
2022-11-23T09:00:26.340Z,2.60
2022-11-23T09:02:54.870Z,2.83
2022-11-23T09:05:23.457Z,2.80
2022-11-23T09:07:52.058Z,2.42
2022-11-23T09:10:20.645Z,2.88
2022-11-23T09:12:49.396Z,2.67
2022-11-23T09:15:18.376Z,2.33
2022-11-23T09:17:48.020Z,1.83
2022-11-23T09:20:16.708Z,2.13
2022-11-23T09:22:45.362Z,2.50
2022-11-23T09:25:13.800Z,2.28
2022-11-23T09:27:42.320Z,1.85
2022-11-23T09:30:11.944Z,1.83
2022-11-23T09:32:40.729Z,1.80
2022-11-23T09:35:10.933Z,2.20
2022-11-23T09:37:39.763Z,2.00
2022-11-23T09:40:13.060Z,1.70
2022-11-23T09:43:03.232Z,1.90
2022-11-23T09:45:37.976Z,1.98
2022-11-23T09:48:22.300Z,2.08
2022-11-23T09:50:57.076Z,1.98
2022-11-23T09:53:30.641Z,2.00
2022-11-23T09:55:59.315Z,1.73
2022-11-23T09:58:34.160Z,1.70
2022-11-23T10:01:07.072Z,1.70
2022-11-23T10:03:42.694Z,1.52
2022-11-23T10:06:19.969Z,1.20
2022-11-23T10:09:07.883Z,1.33
2022-11-23T10:12:20.904Z,1.17
2022-11-23T10:14:58.084Z,1.15
2022-11-23T10:17:37.854Z,1.30
2022-11-23T10:20:29.388Z,1.30
2022-11-23T10:23:01.352Z,1.30
2022-11-23T10:25:39.056Z,1.50
2022-11-23T10:28:13.882Z,0.90
2022-11-23T10:30:42.458Z,1.35
2022-11-23T10:33:22.338Z,1.10
2022-11-23T10:35:50.840Z,1.80
2022-11-23T10:38:22.462Z,1.50
2022-11-23T10:40:59.909Z,1.20
2022-11-23T10:43:32.689Z,1.30
2022-11-23T10:46:31.087Z,1.48
2022-11-23T10:49:14.442Z,1.20
2022-11-23T10:51:50.910Z,1.00
2022-11-23T10:54:33.429Z,1.40
2022-11-23T10:57:03.291Z,1.13
2022-11-23T10:59:35.639Z,1.08
2022-11-23T11:02:19.704Z,1.00
2022-11-23T11:04:52.189Z,0.80
2022-11-23T11:07:26.302Z,1.10
2022-11-23T11:09:57.789Z,1.20
2022-11-23T11:12:26.900Z,1.10
2022-11-23T11:15:10.832Z,1.43
2022-11-23T11:17:42.081Z,1.35
2022-11-23T11:20:38.380Z,1.30
2022-11-23T11:23:18.521Z,0.80
2022-11-23T11:25:49.095Z,1.20
2022-11-23T11:28:25.358Z,1.27
2022-11-23T11:31:04.329Z,1.00
2022-11-23T11:33:44.681Z,1.13
2022-11-23T11:36:17.334Z,1.08
2022-11-23T11:39:08.138Z,0.85
2022-11-23T11:41:45.487Z,0.97
2022-11-23T11:44:20.507Z,1.75
2022-11-23T11:46:53.939Z,1.00
2022-11-23T11:49:32.540Z,1.00
2022-11-23T11:52:08.595Z,1.50
2022-11-23T11:54:43.974Z,1.47
2022-11-23T12:01:28.877Z,0.98
2022-11-23T12:04:01.287Z,0.88
2022-11-23T12:06:34.064Z,1.20
2022-11-23T12:09:08.120Z,1.10
2022-11-23T12:11:36.632Z,0.73
2022-11-23T12:14:15.963Z,0.90
2022-11-23T12:17:17.015Z,0.90
2022-11-23T12:19:48.723Z,1.02
2022-11-23T12:22:38.737Z,0.90
2022-11-23T12:25:20.849Z,0.90
2022-11-23T12:28:02.340Z,0.90
2022-11-23T12:31:12.126Z,0.73
2022-11-23T12:33:57.834Z,0.60
2022-11-23T12:36:46.210Z,0.60
2022-11-23T12:39:30.869Z,0.70
2022-11-23T12:42:04.156Z,0.70
2022-11-23T12:44:51.751Z,0.70
2022-11-23T12:47:30.577Z,0.77
2022-11-23T12:50:10.338Z,0.80
2022-11-23T12:52:58.945Z,0.77
2022-11-23T12:55:37.044Z,0.60
2022-11-23T12:58:11.483Z,0.85
2022-11-23T13:00:49.756Z,0.80
2022-11-23T13:03:45.603Z,0.90
2022-11-23T13:07:05.614Z,0.57
2022-11-23T13:09:57.723Z,0.90
2022-11-23T13:13:03.114Z,0.80
2022-11-23T13:15:58.376Z,0.70
2022-11-23T13:18:42.928Z,0.70
2022-11-23T13:21:24.029Z,0.85
2022-11-23T13:23:52.505Z,0.80
2022-11-23T13:26:24.853Z,0.70
2022-11-23T13:28:53.922Z,0.70
2022-11-23T13:31:28.743Z,0.70
2022-11-23T13:33:58.337Z,0.88
2022-11-23T13:40:03.889Z,0.70
2022-11-23T13:42:36.007Z,0.80
2022-11-23T13:45:31.510Z,12.80
2022-11-23T13:48:48.957Z,2.28
2022-11-23T13:51:11.277Z,0.90
2022-11-23T13:53:41.932Z,0.65
2022-11-23T13:56:24.394Z,0.85
2022-11-23T13:58:56.902Z,0.80
2022-11-23T14:02:00.471Z,0.90
2022-11-23T14:04:32.868Z,0.90
2022-11-23T14:07:32.448Z,0.85
2022-11-23T14:10:09.860Z,0.68
2022-11-23T14:12:48.374Z,0.60
2022-11-23T14:15:28.026Z,0.60
2022-11-23T14:18:28.119Z,0.70
2022-11-23T14:21:17.218Z,0.60
2022-11-23T14:24:17.311Z,0.55
2022-11-23T14:26:55.922Z,0.60
2022-11-23T14:29:50.732Z,1.02
2022-11-23T14:32:33.877Z,1.00
2022-11-23T14:35:26.390Z,0.70
2022-11-23T14:38:27.756Z,0.80
2022-11-23T14:41:09.474Z,1.00
2022-11-23T14:43:43.782Z,0.88
2022-11-23T14:46:20.363Z,0.95
2022-11-23T14:48:52.085Z,1.08
2022-11-23T14:51:23.664Z,1.00
2022-11-23T14:53:58.435Z,0.90
2022-11-23T14:56:34.573Z,0.93
2022-11-23T14:59:08.860Z,1.05
2022-11-23T15:01:38.797Z,2.00
2022-11-23T15:04:22.950Z,1.58
2022-11-23T15:06:56.522Z,1.23
2022-11-23T15:09:43.564Z,1.50
2022-11-23T15:12:25.023Z,1.00
2022-11-23T15:15:00.596Z,1.20
2022-11-23T15:17:29.364Z,1.27
2022-11-23T15:20:00.975Z,1.37
2022-11-23T15:22:31.376Z,1.17
2022-11-23T15:25:08.434Z,1.17
2022-11-23T15:27:41.097Z,1.20
2022-11-23T15:30:16.856Z,1.58
2022-11-23T15:32:45.383Z,1.30
2022-11-23T15:35:16.783Z,1.20
2022-11-23T15:37:47.940Z,1.52
2022-11-23T15:40:18.261Z,1.10
2022-11-23T15:42:52.215Z,1.75
2022-11-23T15:45:59.724Z,1.40
2022-11-23T15:48:31.034Z,1.88
2022-11-23T15:51:04.685Z,2.25
2022-11-23T15:53:37.249Z,1.90
2022-11-23T15:56:22.421Z,2.30
2022-11-23T15:58:53.467Z,1.90
2022-11-23T16:01:23.194Z,2.05
2022-11-23T16:03:55.503Z,2.42
2022-11-23T16:06:36.674Z,2.33
2022-11-23T16:09:50.619Z,2.58
2022-11-23T16:12:28.692Z,3.00
2022-11-23T16:14:57.564Z,2.88
2022-11-23T16:17:27.534Z,3.65
2022-11-23T16:19:57.481Z,4.15
2022-11-23T16:22:35.923Z,3.80
2022-11-23T16:25:07.927Z,4.07
2022-11-23T16:27:37.709Z,4.43
2022-11-23T16:30:06.771Z,6.72
2022-11-23T16:32:37.767Z,7.13
2022-11-23T16:35:18.404Z,8.05
2022-11-23T16:37:51.168Z,7.00
2022-11-23T16:40:19.953Z,5.72
2022-11-23T16:42:54.054Z,5.40
2022-11-23T16:45:22.845Z,4.50
2022-11-23T16:47:58.487Z,4.28
2022-11-23T16:50:29.367Z,3.80
2022-11-23T16:53:10.741Z,3.22
2022-11-23T16:55:42.184Z,3.28
2022-11-23T16:58:16.731Z,3.70
2022-11-23T17:00:45.805Z,4.13
2022-11-23T17:03:15.349Z,3.83
2022-11-23T17:05:48.406Z,5.65
2022-11-23T17:08:23.321Z,5.15
2022-11-23T17:10:56.626Z,5.10
2022-11-23T17:13:30.744Z,4.20
2022-11-23T17:15:59.410Z,3.83
2022-11-23T17:18:28.035Z,4.03
2022-11-23T17:20:56.863Z,4.18
2022-11-23T17:23:49.339Z,5.00
2022-11-23T17:26:39.397Z,4.15
2022-11-23T17:29:15.580Z,4.27
2022-11-23T17:31:45.585Z,4.65
2022-11-23T17:34:15.006Z,5.25
2022-11-23T17:36:43.824Z,6.50
2022-11-23T17:39:21.212Z,6.97
2022-11-23T17:41:49.793Z,6.00
2022-11-23T17:44:18.498Z,6.13
2022-11-23T17:46:48.071Z,6.75
2022-11-23T17:49:19.946Z,6.30
2022-11-23T17:51:48.626Z,5.85
2022-11-23T17:54:23.317Z,6.43
2022-11-23T17:56:52.876Z,6.30
2022-11-23T17:59:21.364Z,5.85
2022-11-23T18:01:49.919Z,5.68
2022-11-23T18:04:18.420Z,5.80
2022-11-23T18:06:46.900Z,7.07
2022-11-23T18:09:15.318Z,6.00
2022-11-23T18:11:44.780Z,6.25
2022-11-23T18:14:13.146Z,5.88
2022-11-23T18:16:41.601Z,6.75
2022-11-23T18:19:09.985Z,6.67
2022-11-23T18:21:38.771Z,5.93
2022-11-23T18:24:08.885Z,5.50
2022-11-23T18:26:37.585Z,5.97
2022-11-23T18:29:07.298Z,6.15
2022-11-23T18:31:35.823Z,6.23
2022-11-23T18:34:05.088Z,5.18
2022-11-23T18:36:33.771Z,4.45
2022-11-23T18:39:02.743Z,3.85
2022-11-23T18:41:31.031Z,4.20
2022-11-23T18:43:59.526Z,4.00
2022-11-23T18:46:29.651Z,3.90
2022-11-23T18:48:58.519Z,3.80
2022-11-23T18:51:27.006Z,3.38
2022-11-23T18:53:55.714Z,3.47
2022-11-23T18:56:27.870Z,3.00
2022-11-23T18:58:56.842Z,3.10
2022-11-23T19:04:18.885Z,2.97
2022-11-23T19:06:52.083Z,3.40
2022-11-23T19:09:22.556Z,3.40
2022-11-23T19:12:20.028Z,3.75
2022-11-23T19:14:49.900Z,2.88
2022-11-23T19:17:18.615Z,3.20
2022-11-23T19:19:48.317Z,2.35
2022-11-23T19:22:16.745Z,2.00
2022-11-23T19:24:45.253Z,1.60
2022-11-23T19:27:13.757Z,1.40
2022-11-23T19:29:42.684Z,1.52
2022-11-23T19:32:11.197Z,1.48
2022-11-23T19:34:39.812Z,1.20
2022-11-23T19:37:09.469Z,1.77
2022-11-23T19:39:46.905Z,1.23
2022-11-23T19:42:27.479Z,1.15
2022-11-23T19:44:55.952Z,1.25
2022-11-23T19:47:24.636Z,1.20
2022-11-23T19:49:53.097Z,1.10
2022-11-23T19:52:37.130Z,1.30
2022-11-23T19:55:11.724Z,1.70
2022-11-23T19:57:40.260Z,1.15
2022-11-23T20:00:10.283Z,1.20
2022-11-23T20:02:40.408Z,0.88
2022-11-23T20:05:11.199Z,1.00
2022-11-23T20:07:40.954Z,1.10
2022-11-23T20:10:10.251Z,1.10
2022-11-23T20:12:39.013Z,1.00
2022-11-23T20:15:08.604Z,1.30
2022-11-23T20:17:37.307Z,1.33
2022-11-23T20:20:06.405Z,1.40
2022-11-23T20:22:35.037Z,0.90
2022-11-23T20:25:14.048Z,0.88
2022-11-23T20:27:42.813Z,0.70
2022-11-23T20:30:12.343Z,1.33
2022-11-23T20:32:41.198Z,1.08
2022-11-23T20:35:14.678Z,2.70
2022-11-23T20:37:43.512Z,1.52
2022-11-23T20:40:14.487Z,0.90
2022-11-23T20:42:43.095Z,1.10
2022-11-23T20:45:12.298Z,1.00
2022-11-23T20:47:41.058Z,1.35
2022-11-23T20:50:10.219Z,1.10
2022-11-23T20:52:40.070Z,1.27
2022-11-23T20:55:08.886Z,1.42
2022-11-23T20:57:38.366Z,1.40
2022-11-23T21:00:07.828Z,0.90
2022-11-23T21:02:36.305Z,1.20
2022-11-23T21:05:04.877Z,1.10
2022-11-23T21:07:33.329Z,1.30
2022-11-23T21:10:01.858Z,1.30
2022-11-23T21:12:50.600Z,1.50
2022-11-23T21:15:21.809Z,1.40
2022-11-23T21:17:52.365Z,2.50
2022-11-23T21:20:20.854Z,1.92
2022-11-23T21:22:49.403Z,1.88
2022-11-23T21:25:18.021Z,2.28
2022-11-23T21:27:46.669Z,8.23
2022-11-23T21:30:22.590Z,2.78
2022-11-23T21:32:54.229Z,1.88
2022-11-23T21:35:22.633Z,4.30
2022-11-23T21:37:51.311Z,6.97
2022-11-23T21:40:19.966Z,3.38
2022-11-23T21:42:48.499Z,2.40
2022-11-23T21:45:17.015Z,2.40
2022-11-23T21:47:46.537Z,5.45
2022-11-23T21:50:16.123Z,7.03
2022-11-23T21:52:44.524Z,2.58
2022-11-23T21:55:13.039Z,4.53
2022-11-23T21:57:41.366Z,3.58
2022-11-23T22:00:10.952Z,3.35
2022-11-23T22:02:40.555Z,2.60
2022-11-23T22:05:09.244Z,4.28
2022-11-23T22:07:38.889Z,3.25
2022-11-23T22:10:08.004Z,3.42
2022-11-23T22:12:36.453Z,2.70
2022-11-23T22:15:04.935Z,2.88
2022-11-23T22:17:33.186Z,3.23
2022-11-23T22:20:01.618Z,3.20
2022-11-23T22:22:30.074Z,5.65
2022-11-23T22:25:00.185Z,3.17
2022-11-23T22:27:28.669Z,3.08
2022-11-23T22:29:57.110Z,3.03
2022-11-23T22:32:25.514Z,4.07
2022-11-23T22:34:53.926Z,2.58
2022-11-23T22:37:22.406Z,2.30
2022-11-23T22:39:53.083Z,1.80
2022-11-23T22:42:24.215Z,2.80
2022-11-23T22:44:53.427Z,2.45
2022-11-23T22:47:21.819Z,2.10
2022-11-23T22:49:50.606Z,2.30
2022-11-23T22:52:19.917Z,2.28
2022-11-23T22:54:48.288Z,2.17
2022-11-23T22:57:16.736Z,2.20
2022-11-23T22:59:46.201Z,2.20
2022-11-23T23:02:14.602Z,2.30
2022-11-23T23:04:43.747Z,1.92
2022-11-23T23:07:12.224Z,2.00
2022-11-23T23:09:40.766Z,2.25
2022-11-23T23:12:09.808Z,2.00
2022-11-23T23:14:39.070Z,1.95
2022-11-23T23:17:09.554Z,1.80
2022-11-23T23:19:38.227Z,2.03
2022-11-23T23:22:06.816Z,2.13
2022-11-23T23:24:35.598Z,1.80
2022-11-23T23:27:12.088Z,1.75
2022-11-23T23:29:40.660Z,1.77
2022-11-23T23:32:10.170Z,1.60
2022-11-23T23:34:38.669Z,1.92
2022-11-23T23:37:06.752Z,1.60
2022-11-23T23:39:35.393Z,1.70
2022-11-23T23:42:03.817Z,1.98
2022-11-23T23:44:32.371Z,1.77
2022-11-23T23:47:00.880Z,1.60
2022-11-23T23:49:31.599Z,1.92
2022-11-23T23:52:55.241Z,1.48
2022-11-23T23:55:26.392Z,2.25
